Time;durP1;ratioP1;P1;durP2;ratioP2;P2;SDS_P1;SDS_P2;PMS_P1;PMS_P2;Temp;Humidity;BMP_temperature;BMP_pressure;BME280_temperature;BME280_humidity;BME280_pressure;Samples;Min_cycle;Max_cycle;Signal;HPM_P1;HPM_P2
2023/05/24 00:00:32;;;;;;;31.63;9.70;;;;;;;;;;5031225;28;20450;-80
2023/05/24 00:02:59;;;;;;;30.03;9.13;;;;;;;;;;5032008;28;20829;-81
2023/05/24 00:05:25;;;;;;;41.17;8.60;;;;;;;;;;5018199;28;20464;-81
2023/05/24 00:07:52;;;;;;;34.47;8.20;;;;;;;;;;5033934;28;20860;-81
2023/05/24 00:10:18;;;;;;;23.63;7.40;;;;;;;;;;5032095;28;20440;-80
2023/05/24 00:12:45;;;;;;;21.10;8.30;;;;;;;;;;5032398;28;20552;-81
2023/05/24 00:15:13;;;;;;;27.43;6.77;;;;;;;;;;5030332;28;20452;-80
2023/05/24 00:17:41;;;;;;;26.40;6.50;;;;;;;;;;5014868;28;20522;-81
2023/05/24 00:20:10;;;;;;;27.60;8.40;;;;;;;;;;5031602;28;20465;-81
2023/05/24 00:22:36;;;;;;;28.80;6.80;;;;;;;;;;5031399;28;20449;-81
2023/05/24 00:25:03;;;;;;;32.70;8.10;;;;;;;;;;5032237;28;20521;-81
2023/05/24 00:27:29;;;;;;;25.50;8.37;;;;;;;;;;5016078;28;20533;-81
2023/05/24 00:29:56;;;;;;;30.00;8.37;;;;;;;;;;5034352;28;21008;-81
2023/05/24 00:32:23;;;;;;;28.93;7.57;;;;;;;;;;5036432;28;20955;-80
2023/05/24 00:34:50;;;;;;;19.40;7.70;;;;;;;;;;5026978;28;20479;-81
2023/05/24 00:37:16;;;;;;;32.90;9.07;;;;;;;;;;5030733;28;20467;-80
2023/05/24 00:39:43;;;;;;;18.80;7.17;;;;;;;;;;5033902;28;20522;-80
2023/05/24 00:42:09;;;;;;;22.67;8.47;;;;;;;;;;5037870;28;20951;-80
2023/05/24 00:44:36;;;;;;;20.03;6.93;;;;;;;;;;5032675;28;20480;-81
2023/05/24 00:47:02;;;;;;;37.03;8.50;;;;;;;;;;5039167;28;20480;-81
2023/05/24 00:49:30;;;;;;;31.53;8.90;;;;;;;;;;5033991;28;20465;-81
2023/05/24 00:51:56;;;;;;;33.00;10.50;;;;;;;;;;5034139;28;20488;-80
2023/05/24 00:54:25;;;;;;;24.07;7.50;;;;;;;;;;5038215;28;20468;-80
2023/05/24 00:56:52;;;;;;;24.13;7.60;;;;;;;;;;5036272;28;20441;-81
2023/05/24 00:59:18;;;;;;;29.47;9.20;;;;;;;;;;5019206;28;20879;-81
2023/05/24 01:01:45;;;;;;;22.83;7.70;;;;;;;;;;5033265;28;20496;-80
2023/05/24 01:04:12;;;;;;;35.80;10.10;;;;;;;;;;5033748;28;20470;-81
2023/05/24 01:06:43;;;;;;;21.10;7.73;;;;;;;;;;5030475;28;20453;-80
2023/05/24 01:09:18;;;;;;;23.57;7.53;;;;;;;;;;5034098;28;20465;-80
2023/05/24 01:11:57;;;;;;;24.87;7.60;;;;;;;;;;5034482;28;20464;-81
2023/05/24 01:14:27;;;;;;;34.80;8.50;;;;;;;;;;5033971;28;20479;-79
2023/05/24 01:16:55;;;;;;;23.10;7.17;;;;;;;;;;5032827;28;20461;-81
2023/05/24 01:19:37;;;;;;;22.10;8.60;;;;;;;;;;5029979;28;20527;-80
2023/05/24 01:22:13;;;;;;;37.67;7.20;;;;;;;;;;5036546;28;20846;-81
2023/05/24 01:24:44;;;;;;;22.80;8.17;;;;;;;;;;5032053;28;20974;-80
2023/05/24 01:27:12;;;;;;;23.97;7.93;;;;;;;;;;5033830;28;20477;-80
2023/05/24 01:29:39;;;;;;;26.83;7.47;;;;;;;;;;5036370;28;20469;-80
2023/05/24 01:32:06;;;;;;;25.13;8.40;;;;;;;;;;5037240;28;20482;-80
2023/05/24 01:34:32;;;;;;;20.67;7.77;;;;;;;;;;5035285;28;20469;-81
2023/05/24 01:36:59;;;;;;;21.47;7.87;;;;;;;;;;5033361;28;20887;-81
2023/05/24 01:39:27;;;;;;;31.10;8.60;;;;;;;;;;5029846;28;20864;-81
2023/05/24 01:41:59;;;;;;;17.97;7.03;;;;;;;;;;5037895;28;20456;-81
2023/05/24 01:44:31;;;;;;;25.47;7.50;;;;;;;;;;5037958;28;20487;-81
2023/05/24 01:47:01;;;;;;;22.20;8.10;;;;;;;;;;5034952;28;20463;-81
2023/05/24 01:49:34;;;;;;;20.53;7.53;;;;;;;;;;5033501;28;20469;-80
2023/05/24 01:52:03;;;;;;;32.03;8.67;;;;;;;;;;5031093;28;20449;-81
2023/05/24 01:54:33;;;;;;;21.37;9.03;;;;;;;;;;5030714;28;20477;-81
2023/05/24 01:57:02;;;;;;;24.43;7.07;;;;;;;;;;5037590;28;20480;-80
2023/05/24 01:59:31;;;;;;;30.47;8.63;;;;;;;;;;5030466;28;20473;-81
2023/05/24 02:01:58;;;;;;;30.50;8.50;;;;;;;;;;5009722;28;20473;-80
2023/05/24 02:04:25;;;;;;;27.23;6.90;;;;;;;;;;5035541;28;20472;-80
2023/05/24 02:06:51;;;;;;;20.30;7.73;;;;;;;;;;5032178;28;20458;-81
2023/05/24 02:09:17;;;;;;;22.83;7.00;;;;;;;;;;5036312;28;20476;-80
2023/05/24 02:11:44;;;;;;;24.47;7.77;;;;;;;;;;5035648;28;20961;-80
2023/05/24 02:14:10;;;;;;;25.53;7.57;;;;;;;;;;5034909;28;20473;-80
2023/05/24 02:16:41;;;;;;;27.33;7.70;;;;;;;;;;5032977;28;20461;-80
2023/05/24 02:19:09;;;;;;;22.23;7.20;;;;;;;;;;5031904;28;20470;-81
2023/05/24 02:21:35;;;;;;;30.23;7.57;;;;;;;;;;5035576;28;20467;-80
2023/05/24 02:24:01;;;;;;;24.33;7.87;;;;;;;;;;5031503;28;20468;-81
2023/05/24 02:26:27;;;;;;;26.33;7.97;;;;;;;;;;5034630;28;20489;-80
2023/05/24 02:28:54;;;;;;;21.10;7.47;;;;;;;;;;5019221;28;20481;-80
2023/05/24 02:31:20;;;;;;;19.17;8.37;;;;;;;;;;5028840;28;20452;-81
2023/05/24 02:33:48;;;;;;;16.83;10.07;;;;;;;;;;5019886;28;20859;-81
2023/05/24 02:36:15;;;;;;;33.37;8.33;;;;;;;;;;5027081;28;20437;-80
2023/05/24 02:38:42;;;;;;;27.90;8.37;;;;;;;;;;5032035;28;20480;-80
2023/05/24 02:41:10;;;;;;;17.90;7.30;;;;;;;;;;5037320;28;20451;-80
2023/05/24 02:43:36;;;;;;;22.30;8.30;;;;;;;;;;5036113;28;20465;-81
2023/05/24 02:46:03;;;;;;;31.37;8.00;;;;;;;;;;5034231;28;20441;-81
2023/05/24 02:48:29;;;;;;;26.93;7.80;;;;;;;;;;5027169;28;20486;-81
2023/05/24 02:51:01;;;;;;;25.07;8.87;;;;;;;;;;5031745;28;20483;-81
2023/05/24 02:53:28;;;;;;;20.07;7.17;;;;;;;;;;5034799;28;20550;-81
2023/05/24 02:55:54;;;;;;;29.90;9.90;;;;;;;;;;5029558;28;20449;-81
2023/05/24 02:58:21;;;;;;;27.43;7.53;;;;;;;;;;5030856;28;20533;-81
2023/05/24 03:00:48;;;;;;;23.00;6.33;;;;;;;;;;5009003;28;20450;-80
2023/05/24 03:03:15;;;;;;;22.30;6.73;;;;;;;;;;5035688;28;20464;-79
2023/05/24 03:05:42;;;;;;;24.93;7.57;;;;;;;;;;5031675;28;20441;-80
2023/05/24 03:08:10;;;;;;;22.00;7.97;;;;;;;;;;5034754;28;20469;-79
2023/05/24 03:10:36;;;;;;;21.53;7.50;;;;;;;;;;5030012;28;20483;-80
2023/05/24 03:13:02;;;;;;;21.57;7.60;;;;;;;;;;5012798;28;20461;-80
2023/05/24 03:15:29;;;;;;;31.37;7.90;;;;;;;;;;5026755;28;20496;-80
2023/05/24 03:17:55;;;;;;;21.97;7.90;;;;;;;;;;5033553;28;20526;-80
2023/05/24 03:20:22;;;;;;;25.00;7.93;;;;;;;;;;5031026;28;20547;-80
2023/05/24 03:22:48;;;;;;;28.67;7.80;;;;;;;;;;5028881;28;20938;-80
2023/05/24 03:25:16;;;;;;;26.90;9.50;;;;;;;;;;5031886;28;20943;-80
2023/05/24 03:27:42;;;;;;;23.07;7.83;;;;;;;;;;5030942;28;20527;-80
2023/05/24 03:30:09;;;;;;;25.20;7.90;;;;;;;;;;5031844;28;20451;-79
2023/05/24 03:32:36;;;;;;;31.63;7.60;;;;;;;;;;5031511;28;20957;-79
2023/05/24 03:35:02;;;;;;;30.10;9.60;;;;;;;;;;5034341;28;20488;-79
2023/05/24 03:37:28;;;;;;;17.20;7.07;;;;;;;;;;5029359;28;20571;-80
2023/05/24 03:39:55;;;;;;;26.60;6.80;;;;;;;;;;5037043;28;21056;-80
2023/05/24 03:42:22;;;;;;;29.50;7.40;;;;;;;;;;5038318;28;20932;-79
2023/05/24 03:44:49;;;;;;;20.97;5.90;;;;;;;;;;5010659;28;20815;-80
2023/05/24 03:47:15;;;;;;;27.67;8.10;;;;;;;;;;5038418;28;20484;-81
2023/05/24 03:49:41;;;;;;;23.83;7.40;;;;;;;;;;5039763;28;20479;-82
2023/05/24 03:52:08;;;;;;;26.43;9.37;;;;;;;;;;5040328;28;20499;-81
2023/05/24 03:54:34;;;;;;;20.33;7.00;;;;;;;;;;5028630;28;20479;-82
2023/05/24 03:57:01;;;;;;;22.30;6.70;;;;;;;;;;5027197;28;20477;-80
2023/05/24 03:59:29;;;;;;;24.37;7.20;;;;;;;;;;5035558;28;20473;-80
2023/05/24 04:01:56;;;;;;;32.87;7.57;;;;;;;;;;5038004;28;20804;-79
2023/05/24 04:04:22;;;;;;;19.20;7.20;;;;;;;;;;5036333;28;20468;-79
2023/05/24 04:06:48;;;;;;;31.43;8.60;;;;;;;;;;5037682;28;20441;-81
2023/05/24 04:09:16;;;;;;;16.33;6.43;;;;;;;;;;5038092;28;20944;-81
2023/05/24 04:11:43;;;;;;;30.73;6.43;;;;;;;;;;5035440;28;21076;-81
2023/05/24 04:14:11;;;;;;;27.63;6.30;;;;;;;;;;5015868;28;20485;-81
2023/05/24 04:16:40;;;;;;;33.20;9.37;;;;;;;;;;5034023;28;20468;-81
2023/05/24 04:19:07;;;;;;;24.57;6.97;;;;;;;;;;5028933;28;20469;-81
2023/05/24 04:21:35;;;;;;;23.70;6.93;;;;;;;;;;5015848;28;20478;-81
2023/05/24 04:24:03;;;;;;;27.50;9.00;;;;;;;;;;5026946;28;20460;-81
2023/05/24 04:26:30;;;;;;;23.20;6.63;;;;;;;;;;5038873;28;20449;-81
2023/05/24 04:28:56;;;;;;;17.87;6.70;;;;;;;;;;5019083;28;21044;-81
2023/05/24 04:31:23;;;;;;;25.30;7.10;;;;;;;;;;5038620;28;20544;-81
2023/05/24 04:33:51;;;;;;;25.90;7.77;;;;;;;;;;5036494;28;21012;-81
2023/05/24 04:36:18;;;;;;;23.77;6.50;;;;;;;;;;5034939;28;20449;-81
2023/05/24 04:38:45;;;;;;;25.03;6.73;;;;;;;;;;5036343;28;20476;-80
2023/05/24 04:41:12;;;;;;;18.53;6.27;;;;;;;;;;5037576;28;20460;-81
2023/05/24 04:43:39;;;;;;;30.27;8.10;;;;;;;;;;5018211;28;20492;-80
2023/05/24 04:46:05;;;;;;;22.60;6.90;;;;;;;;;;5033931;28;20476;-81
2023/05/24 04:48:32;;;;;;;20.73;7.97;;;;;;;;;;5031830;28;20475;-80
2023/05/24 04:50:59;;;;;;;27.57;6.87;;;;;;;;;;5040671;28;20452;-81
2023/05/24 04:53:26;;;;;;;31.37;8.73;;;;;;;;;;5035952;28;20465;-81
2023/05/24 04:55:52;;;;;;;19.13;6.37;;;;;;;;;;5032104;28;20481;-80
2023/05/24 04:58:19;;;;;;;28.10;6.37;;;;;;;;;;5017278;28;21071;-81
2023/05/24 05:00:45;;;;;;;29.13;6.70;;;;;;;;;;5035309;28;20445;-81
2023/05/24 05:03:12;;;;;;;18.93;6.10;;;;;;;;;;5031627;28;20475;-81
2023/05/24 05:05:38;;;;;;;25.13;6.50;;;;;;;;;;5031120;28;21023;-80
2023/05/24 05:08:06;;;;;;;15.87;6.30;;;;;;;;;;5014743;28;20470;-81
2023/05/24 05:10:32;;;;;;;22.40;10.30;;;;;;;;;;5032709;28;20451;-82
2023/05/24 05:12:59;;;;;;;21.17;6.73;;;;;;;;;;5031748;28;20452;-81
2023/05/24 05:15:25;;;;;;;18.70;6.50;;;;;;;;;;5035274;28;20484;-81
2023/05/24 05:17:52;;;;;;;26.97;7.00;;;;;;;;;;5033385;28;20496;-81
2023/05/24 05:20:19;;;;;;;21.70;7.10;;;;;;;;;;5037139;28;20453;-81
2023/05/24 05:22:46;;;;;;;27.50;8.07;;;;;;;;;;5033209;28;20448;-82
2023/05/24 05:25:14;;;;;;;19.10;6.93;;;;;;;;;;5014327;28;20447;-81
2023/05/24 05:27:40;;;;;;;26.93;7.13;;;;;;;;;;5032329;28;20978;-81
2023/05/24 05:30:07;;;;;;;24.27;7.93;;;;;;;;;;5032225;28;20829;-81
2023/05/24 05:32:34;;;;;;;18.67;6.90;;;;;;;;;;5035818;28;20503;-81
2023/05/24 05:35:00;;;;;;;22.93;6.70;;;;;;;;;;5028570;28;21064;-81
2023/05/24 05:37:26;;;;;;;17.80;6.33;;;;;;;;;;5029571;28;20477;-81
2023/05/24 05:39:54;;;;;;;20.03;7.33;;;;;;;;;;5032375;28;20496;-81
2023/05/24 05:42:22;;;;;;;20.57;5.77;;;;;;;;;;5031438;28;20903;-81
2023/05/24 05:44:48;;;;;;;18.33;6.77;;;;;;;;;;5036894;28;20702;-81
2023/05/24 05:47:15;;;;;;;24.67;7.57;;;;;;;;;;5018963;28;20531;-81
2023/05/24 05:49:41;;;;;;;34.47;8.87;;;;;;;;;;5035450;28;20527;-79
2023/05/24 05:52:08;;;;;;;20.57;8.60;;;;;;;;;;5035778;28;20460;-81
2023/05/24 05:54:34;;;;;;;23.20;9.07;;;;;;;;;;5017532;28;20990;-80
2023/05/24 05:57:00;;;;;;;30.33;8.77;;;;;;;;;;5032453;28;20481;-79
2023/05/24 05:59:28;;;;;;;29.90;10.00;;;;;;;;;;5019121;28;20844;-80
2023/05/24 06:01:55;;;;;;;40.90;11.70;;;;;;;;;;5035351;28;20464;-81
2023/05/24 06:04:21;;;;;;;24.57;11.33;;;;;;;;;;5022515;28;21005;-81
2023/05/24 06:06:48;;;;;;;28.43;12.13;;;;;;;;;;5033567;28;20453;-81
2023/05/24 06:09:15;;;;;;;33.80;14.97;;;;;;;;;;5028108;28;20468;-81
2023/05/24 06:11:43;;;;;;;42.80;13.70;;;;;;;;;;5016128;28;20452;-82
2023/05/24 06:14:10;;;;;;;27.60;13.90;;;;;;;;;;5027964;28;20478;-81
2023/05/24 06:16:40;;;;;;;38.90;14.60;;;;;;;;;;5044146;28;20483;-82
2023/05/24 06:19:08;;;;;;;36.63;14.97;;;;;;;;;;5025229;28;20472;-79
2023/05/24 06:21:35;;;;;;;28.57;14.30;;;;;;;;;;5031414;28;20800;-79
2023/05/24 06:24:02;;;;;;;31.30;13.40;;;;;;;;;;5034165;28;20491;-82
2023/05/24 06:26:29;;;;;;;30.73;13.80;;;;;;;;;;5045406;28;21050;-82
2023/05/24 06:28:55;;;;;;;27.50;12.00;;;;;;;;;;5039824;28;20487;-81
2023/05/24 06:31:22;;;;;;;24.20;11.67;;;;;;;;;;5025656;28;20811;-81
2023/05/24 06:33:50;;;;;;;35.30;13.53;;;;;;;;;;5012637;28;20495;-81
2023/05/24 06:36:16;;;;;;;37.57;12.40;;;;;;;;;;5015205;28;20486;-81
2023/05/24 06:38:42;;;;;;;28.33;11.80;;;;;;;;;;5030930;28;20484;-81
2023/05/24 06:41:09;;;;;;;26.60;14.50;;;;;;;;;;5032924;28;20460;-82
2023/05/24 06:43:35;;;;;;;45.23;11.60;;;;;;;;;;5034350;28;20464;-81
2023/05/24 06:46:02;;;;;;;33.43;12.63;;;;;;;;;;5028042;28;20446;-81
2023/05/24 06:48:28;;;;;;;26.43;10.40;;;;;;;;;;5025618;28;20476;-82
2023/05/24 06:50:56;;;;;;;31.97;11.30;;;;;;;;;;5037777;28;20444;-82
2023/05/24 06:53:23;;;;;;;24.37;11.17;;;;;;;;;;5030313;28;20481;-81
2023/05/24 06:55:49;;;;;;;19.83;11.67;;;;;;;;;;5034641;28;20613;-80
2023/05/24 06:58:16;;;;;;;21.47;11.70;;;;;;;;;;5032971;28;20506;-80
2023/05/24 07:00:44;;;;;;;30.67;11.17;;;;;;;;;;5016995;28;20456;-80
2023/05/24 07:03:10;;;;;;;21.83;8.73;;;;;;;;;;5030930;28;20544;-80
2023/05/24 07:05:37;;;;;;;32.93;9.97;;;;;;;;;;5001615;28;20502;-80
2023/05/24 07:08:05;;;;;;;30.23;9.23;;;;;;;;;;5032003;28;20476;-80
2023/05/24 07:10:32;;;;;;;31.33;8.83;;;;;;;;;;5026108;28;20536;-80
2023/05/24 07:12:58;;;;;;;23.87;9.07;;;;;;;;;;5032534;28;20463;-80
2023/05/24 07:15:25;;;;;;;28.77;8.00;;;;;;;;;;5027143;28;20507;-80
2023/05/24 07:17:52;;;;;;;22.23;8.10;;;;;;;;;;5013616;28;20504;-80
2023/05/24 07:20:19;;;;;;;27.00;7.63;;;;;;;;;;5005328;28;20457;-80
2023/05/24 07:22:45;;;;;;;21.53;7.80;;;;;;;;;;5025576;28;20446;-82
2023/05/24 07:25:13;;;;;;;33.13;8.40;;;;;;;;;;5031199;28;20459;-82
2023/05/24 07:27:39;;;;;;;22.70;8.13;;;;;;;;;;5022125;28;20469;-82
2023/05/24 07:30:07;;;;;;;20.93;6.77;;;;;;;;;;5009791;28;20489;-82
2023/05/24 07:32:33;;;;;;;25.00;7.67;;;;;;;;;;5019144;28;20442;-82
2023/05/24 07:34:59;;;;;;;25.27;8.07;;;;;;;;;;5027060;28;20472;-81
2023/05/24 07:37:26;;;;;;;16.87;6.60;;;;;;;;;;5034209;28;20829;-82
2023/05/24 07:39:52;;;;;;;29.73;7.73;;;;;;;;;;5032543;28;20480;-82
2023/05/24 07:42:20;;;;;;;20.33;7.73;;;;;;;;;;5015032;28;20487;-81
2023/05/24 07:44:46;;;;;;;19.60;8.57;;;;;;;;;;5017720;28;21058;-81
2023/05/24 07:47:13;;;;;;;27.63;8.33;;;;;;;;;;5028284;28;20469;-81
2023/05/24 07:49:39;;;;;;;21.53;6.50;;;;;;;;;;5023854;28;20465;-80
2023/05/24 07:52:06;;;;;;;28.67;7.63;;;;;;;;;;5025388;28;20453;-80
2023/05/24 07:54:32;;;;;;;30.10;7.30;;;;;;;;;;5014735;28;20461;-80
2023/05/24 07:56:58;;;;;;;29.20;8.60;;;;;;;;;;5019245;28;20477;-79
2023/05/24 07:59:26;;;;;;;26.43;8.53;;;;;;;;;;5015831;28;20472;-80
2023/05/24 08:01:53;;;;;;;18.80;6.30;;;;;;;;;;5007632;28;20456;-82
2023/05/24 08:04:19;;;;;;;14.87;6.80;;;;;;;;;;5030397;28;20474;-81
2023/05/24 08:06:47;;;;;;;28.60;6.60;;;;;;;;;;5024384;28;20529;-82
2023/05/24 08:09:13;;;;;;;25.87;8.10;;;;;;;;;;5032852;28;20555;-81
2023/05/24 08:11:40;;;;;;;23.00;8.40;;;;;;;;;;5032413;28;20926;-81
2023/05/24 08:14:06;;;;;;;28.90;8.97;;;;;;;;;;5031684;28;20477;-82
2023/05/24 08:16:34;;;;;;;32.33;8.33;;;;;;;;;;5026154;28;20481;-80
2023/05/24 08:19:02;;;;;;;25.37;8.07;;;;;;;;;;5031138;28;20473;-79
2023/05/24 08:21:29;;;;;;;35.03;8.80;;;;;;;;;;5032518;28;20461;-79
2023/05/24 08:23:55;;;;;;;26.23;7.33;;;;;;;;;;5033347;28;20475;-80
2023/05/24 08:26:23;;;;;;;31.63;8.30;;;;;;;;;;5035573;28;20476;-79
2023/05/24 08:28:49;;;;;;;19.87;8.77;;;;;;;;;;5028676;28;21032;-79
2023/05/24 08:31:16;;;;;;;25.60;7.97;;;;;;;;;;5035344;28;20815;-81
2023/05/24 08:33:43;;;;;;;22.63;8.17;;;;;;;;;;5036328;28;20468;-79
2023/05/24 08:36:10;;;;;;;25.50;8.47;;;;;;;;;;5027772;28;20488;-80
2023/05/24 08:38:36;;;;;;;33.47;7.90;;;;;;;;;;5035632;28;20479;-80
2023/05/24 08:41:05;;;;;;;25.93;7.73;;;;;;;;;;5015785;28;20451;-80
2023/05/24 08:43:33;;;;;;;36.30;9.43;;;;;;;;;;5034944;28;21005;-80
2023/05/24 08:46:01;;;;;;;21.20;6.77;;;;;;;;;;5049236;28;20949;-80
2023/05/24 08:48:28;;;;;;;23.60;7.97;;;;;;;;;;5023047;28;20472;-79
2023/05/24 08:50:57;;;;;;;34.40;10.20;;;;;;;;;;5029177;28;20971;-82
2023/05/24 08:53:23;;;;;;;19.93;7.13;;;;;;;;;;5034069;28;20483;-81
2023/05/24 08:55:52;;;;;;;19.40;7.27;;;;;;;;;;5029731;28;20484;-81
2023/05/24 08:58:18;;;;;;;17.70;8.83;;;;;;;;;;5033086;28;20465;-81
2023/05/24 09:00:45;;;;;;;26.80;7.77;;;;;;;;;;5027121;28;20449;-80
2023/05/24 09:03:12;;;;;;;24.50;7.30;;;;;;;;;;5033820;28;20476;-80
2023/05/24 09:05:40;;;;;;;32.63;8.20;;;;;;;;;;5033891;28;20441;-80
2023/05/24 09:08:09;;;;;;;27.30;8.93;;;;;;;;;;5007541;28;21133;-80
2023/05/24 09:10:36;;;;;;;29.20;6.53;;;;;;;;;;5028177;28;20449;-80
2023/05/24 09:13:03;;;;;;;19.90;7.60;;;;;;;;;;5030531;28;20821;-80
2023/05/24 09:15:29;;;;;;;15.27;7.30;;;;;;;;;;5028700;28;20449;-80
2023/05/24 09:17:55;;;;;;;19.63;6.43;;;;;;;;;;5036219;28;20491;-80
2023/05/24 09:20:22;;;;;;;25.57;7.50;;;;;;;;;;5026853;28;20457;-80
2023/05/24 09:22:50;;;;;;;35.40;8.33;;;;;;;;;;5015911;28;20542;-80
2023/05/24 09:25:19;;;;;;;23.13;7.63;;;;;;;;;;5027408;28;20498;-80
2023/05/24 09:27:48;;;;;;;36.63;7.57;;;;;;;;;;5028580;28;20492;-80
2023/05/24 09:30:15;;;;;;;32.40;7.83;;;;;;;;;;5027818;28;20441;-80
2023/05/24 09:32:41;;;;;;;30.97;8.00;;;;;;;;;;5014041;28;20834;-81
2023/05/24 09:35:09;;;;;;;30.33;7.30;;;;;;;;;;5031595;28;20460;-79
2023/05/24 09:37:37;;;;;;;17.70;6.67;;;;;;;;;;5031743;28;20861;-80
2023/05/24 09:40:05;;;;;;;20.43;8.47;;;;;;;;;;5028118;28;20472;-80
2023/05/24 09:42:33;;;;;;;22.70;7.00;;;;;;;;;;5030673;28;20449;-80
2023/05/24 09:45:00;;;;;;;28.17;7.47;;;;;;;;;;5033149;28;20473;-81
2023/05/24 09:47:29;;;;;;;22.73;6.93;;;;;;;;;;5032910;28;20461;-80
2023/05/24 09:49:57;;;;;;;20.97;6.70;;;;;;;;;;5007421;28;20909;-80
2023/05/24 09:52:23;;;;;;;19.93;7.13;;;;;;;;;;5030972;28;20448;-81
2023/05/24 09:54:49;;;;;;;30.57;8.33;;;;;;;;;;5027213;28;20480;-81
2023/05/24 09:57:16;;;;;;;26.03;8.33;;;;;;;;;;5030597;28;20519;-80
2023/05/24 09:59:44;;;;;;;24.50;7.17;;;;;;;;;;5030249;28;20496;-80
2023/05/24 10:02:11;;;;;;;25.33;8.37;;;;;;;;;;5013122;28;20472;-81
2023/05/24 10:04:38;;;;;;;22.60;7.00;;;;;;;;;;5032597;28;20475;-81
2023/05/24 10:07:05;;;;;;;20.30;8.73;;;;;;;;;;5025097;28;20473;-81
2023/05/24 10:09:32;;;;;;;23.50;8.33;;;;;;;;;;5023199;28;20474;-80
2023/05/24 10:12:01;;;;;;;27.50;8.07;;;;;;;;;;5016815;28;20478;-81
2023/05/24 10:14:29;;;;;;;32.80;8.53;;;;;;;;;;5028922;28;20896;-80
2023/05/24 10:16:57;;;;;;;19.47;8.10;;;;;;;;;;5028945;28;20499;-79
2023/05/24 10:19:24;;;;;;;30.87;8.60;;;;;;;;;;5032176;28;20978;-81
2023/05/24 10:21:51;;;;;;;30.70;9.13;;;;;;;;;;5032813;28;20441;-80
2023/05/24 10:24:19;;;;;;;25.53;7.67;;;;;;;;;;5037777;28;20468;-80
2023/05/24 10:26:48;;;;;;;18.10;7.67;;;;;;;;;;5016483;28;20826;-80
2023/05/24 10:29:19;;;;;;;20.77;8.00;;;;;;;;;;5029701;28;20469;-80
2023/05/24 10:31:45;;;;;;;24.30;7.80;;;;;;;;;;5038579;28;20448;-80
2023/05/24 10:34:14;;;;;;;32.10;9.30;;;;;;;;;;5016650;28;21002;-81
2023/05/24 10:36:42;;;;;;;28.60;8.17;;;;;;;;;;5037704;28;20481;-81
2023/05/24 10:39:11;;;;;;;23.33;8.03;;;;;;;;;;5029017;28;20500;-80
2023/05/24 10:41:41;;;;;;;21.33;9.13;;;;;;;;;;5033691;28;20487;-80
2023/05/24 10:44:11;;;;;;;26.87;8.47;;;;;;;;;;5018074;28;20472;-81
2023/05/24 10:46:59;;;;;;;28.13;7.97;;;;;;;;;;5029475;28;20444;-81
2023/05/24 10:49:27;;;;;;;21.20;7.70;;;;;;;;;;5028530;28;20472;-80
2023/05/24 10:52:00;;;;;;;22.23;8.40;;;;;;;;;;5029198;28;20829;-80
2023/05/24 10:54:26;;;;;;;23.90;9.00;;;;;;;;;;5015673;28;20469;-80
2023/05/24 10:56:53;;;;;;;28.30;9.30;;;;;;;;;;5034637;28;20927;-80
2023/05/24 10:59:24;;;;;;;26.67;8.97;;;;;;;;;;5012427;28;20484;-80
2023/05/24 11:01:57;;;;;;;21.40;9.60;;;;;;;;;;5040862;28;20440;-81
2023/05/24 11:04:23;;;;;;;21.30;9.10;;;;;;;;;;5033007;28;20518;-80
2023/05/24 11:06:55;;;;;;;20.33;7.43;;;;;;;;;;5030107;28;21010;-81
2023/05/24 11:09:22;;;;;;;21.30;7.60;;;;;;;;;;5015011;28;20850;-80
2023/05/24 11:11:49;;;;;;;21.53;7.50;;;;;;;;;;5029474;28;20452;-80
2023/05/24 11:14:18;;;;;;;19.33;7.40;;;;;;;;;;5030608;28;20527;-80
2023/05/24 11:16:46;;;;;;;24.40;7.77;;;;;;;;;;5029670;28;20908;-81
2023/05/24 11:19:14;;;;;;;26.53;9.50;;;;;;;;;;5033745;28;20472;-80
2023/05/24 11:21:40;;;;;;;22.80;8.47;;;;;;;;;;5031749;28;20448;-81
2023/05/24 11:24:09;;;;;;;24.13;8.47;;;;;;;;;;5032836;28;20519;-80
2023/05/24 11:26:36;;;;;;;27.83;7.80;;;;;;;;;;5031157;28;20444;-81
2023/05/24 11:29:04;;;;;;;22.63;8.10;;;;;;;;;;5011620;28;20473;-81
2023/05/24 11:31:30;;;;;;;24.43;8.40;;;;;;;;;;5016557;28;21024;-80
2023/05/24 11:33:56;;;;;;;21.90;8.27;;;;;;;;;;5023002;28;20472;-80
2023/05/24 11:36:24;;;;;;;17.27;7.80;;;;;;;;;;5034040;28;20986;-80
2023/05/24 11:38:51;;;;;;;29.47;8.40;;;;;;;;;;5011954;28;20488;-80
2023/05/24 11:41:19;;;;;;;17.90;7.37;;;;;;;;;;5032835;28;20476;-81
2023/05/24 11:43:46;;;;;;;20.07;7.87;;;;;;;;;;5030427;28;20555;-81
2023/05/24 11:46:13;;;;;;;19.53;7.87;;;;;;;;;;5029757;28;20449;-81
2023/05/24 11:48:39;;;;;;;17.60;7.60;;;;;;;;;;5028677;28;20483;-80
2023/05/24 11:51:06;;;;;;;18.13;8.63;;;;;;;;;;5023769;28;20471;-81
2023/05/24 11:53:32;;;;;;;13.40;6.47;;;;;;;;;;5015805;28;20460;-81
2023/05/24 11:55:59;;;;;;;17.27;8.00;;;;;;;;;;5029783;28;20461;-80
2023/05/24 11:58:32;;;;;;;26.30;9.47;;;;;;;;;;5036657;28;20499;-81
2023/05/24 12:00:59;;;;;;;22.67;6.90;;;;;;;;;;5038163;28;20447;-80
2023/05/24 12:03:26;;;;;;;18.90;9.40;;;;;;;;;;5030349;28;20469;-80
2023/05/24 12:05:56;;;;;;;27.30;10.20;;;;;;;;;;5016335;28;20460;-81
2023/05/24 12:08:22;;;;;;;20.13;8.73;;;;;;;;;;5014618;28;20469;-81
2023/05/24 12:10:50;;;;;;;17.37;7.90;;;;;;;;;;5036982;28;20935;-80
2023/05/24 12:13:22;;;;;;;17.40;10.07;;;;;;;;;;5013441;28;20456;-81
2023/05/24 12:15:51;;;;;;;20.37;7.93;;;;;;;;;;5031651;28;20529;-80
2023/05/24 12:18:18;;;;;;;20.20;8.60;;;;;;;;;;5037702;28;20460;-81
2023/05/24 12:20:45;;;;;;;19.10;8.20;;;;;;;;;;5036493;28;20472;-80
2023/05/24 12:23:12;;;;;;;18.30;9.20;;;;;;;;;;5018540;28;20468;-80
2023/05/24 12:25:38;;;;;;;19.27;7.60;;;;;;;;;;5026681;28;20822;-80
2023/05/24 12:28:05;;;;;;;17.80;8.33;;;;;;;;;;5035504;28;20936;-81
2023/05/24 12:30:31;;;;;;;27.80;8.20;;;;;;;;;;5025688;28;20820;-80
2023/05/24 12:32:59;;;;;;;16.33;8.33;;;;;;;;;;5022445;28;20954;-80
2023/05/24 12:35:25;;;;;;;24.03;8.03;;;;;;;;;;5038338;28;20527;-80
2023/05/24 12:37:58;;;;;;;24.80;9.47;;;;;;;;;;5028021;28;21017;-80
2023/05/24 12:40:24;;;;;;;15.00;7.37;;;;;;;;;;5028855;28;20453;-80
2023/05/24 12:42:52;;;;;;;22.77;7.83;;;;;;;;;;5029768;28;20465;-80
2023/05/24 12:45:21;;;;;;;26.73;7.97;;;;;;;;;;5019226;28;20527;-81
2023/05/24 12:47:49;;;;;;;13.23;7.30;;;;;;;;;;5035646;28;20477;-81
2023/05/24 12:50:17;;;;;;;16.53;7.67;;;;;;;;;;5036103;28;20457;-80
2023/05/24 12:52:45;;;;;;;21.53;7.77;;;;;;;;;;5035325;28;20446;-80
2023/05/24 12:55:12;;;;;;;17.27;8.30;;;;;;;;;;5025704;28;20928;-81
2023/05/24 12:57:38;;;;;;;19.63;7.13;;;;;;;;;;5032783;28;20480;-80
2023/05/24 13:00:05;;;;;;;22.33;7.07;;;;;;;;;;5014612;28;20461;-80
2023/05/24 13:02:34;;;;;;;12.20;6.73;;;;;;;;;;5036831;28;20452;-81
2023/05/24 13:05:00;;;;;;;14.23;7.23;;;;;;;;;;5034368;28;20593;-81
2023/05/24 13:07:28;;;;;;;19.77;7.60;;;;;;;;;;5032904;28;20492;-80
2023/05/24 13:09:54;;;;;;;15.10;7.40;;;;;;;;;;5030844;28;20479;-80
2023/05/24 13:12:21;;;;;;;15.83;6.73;;;;;;;;;;5036011;28;20464;-81
2023/05/24 13:14:47;;;;;;;10.93;6.70;;;;;;;;;;5030926;28;21029;-81
2023/05/24 13:17:14;;;;;;;17.10;6.83;;;;;;;;;;5031283;28;20463;-80
2023/05/24 13:19:41;;;;;;;19.60;8.43;;;;;;;;;;5027507;28;20461;-81
2023/05/24 13:22:07;;;;;;;18.83;8.57;;;;;;;;;;5044063;28;20828;-81
2023/05/24 13:24:35;;;;;;;12.80;7.40;;;;;;;;;;5033410;28;20468;-81
2023/05/24 13:27:02;;;;;;;19.50;9.00;;;;;;;;;;5033582;28;20473;-80
2023/05/24 13:29:28;;;;;;;14.93;7.50;;;;;;;;;;5031040;28;20469;-81
2023/05/24 13:31:55;;;;;;;16.27;7.50;;;;;;;;;;5029650;28;20818;-81
2023/05/24 13:34:22;;;;;;;19.43;7.57;;;;;;;;;;5035531;28;20496;-81
2023/05/24 13:36:48;;;;;;;20.90;8.13;;;;;;;;;;5030753;28;20452;-80
2023/05/24 13:39:15;;;;;;;18.40;9.17;;;;;;;;;;5033770;28;20476;-81
2023/05/24 13:41:42;;;;;;;14.13;6.93;;;;;;;;;;5030587;28;20524;-81
2023/05/24 13:44:09;;;;;;;23.00;7.20;;;;;;;;;;5033817;28;20450;-80
2023/05/24 13:46:37;;;;;;;22.13;6.73;;;;;;;;;;5013362;28;20457;-81
2023/05/24 13:49:04;;;;;;;19.30;8.50;;;;;;;;;;5035670;28;20552;-81
2023/05/24 13:51:31;;;;;;;18.50;8.30;;;;;;;;;;5032330;28;20996;-80
2023/05/24 13:53:58;;;;;;;24.73;8.80;;;;;;;;;;5030727;28;20473;-81
2023/05/24 13:56:26;;;;;;;25.63;8.80;;;;;;;;;;5031632;28;20824;-80
2023/05/24 13:58:53;;;;;;;11.60;8.50;;;;;;;;;;5026804;28;21001;-81
2023/05/24 14:01:20;;;;;;;19.83;8.20;;;;;;;;;;5033143;28;20451;-80
2023/05/24 14:03:46;;;;;;;16.50;7.33;;;;;;;;;;5033818;28;20473;-81
2023/05/24 14:06:13;;;;;;;15.30;6.60;;;;;;;;;;5028495;28;20464;-80
2023/05/24 14:08:41;;;;;;;16.93;7.50;;;;;;;;;;5033580;28;20482;-81
2023/05/24 14:11:08;;;;;;;23.10;8.90;;;;;;;;;;5029113;28;20950;-81
2023/05/24 14:13:34;;;;;;;25.40;7.73;;;;;;;;;;5017761;28;20466;-81
2023/05/24 14:16:02;;;;;;;25.60;8.37;;;;;;;;;;5030315;28;20416;-81
2023/05/24 14:18:28;;;;;;;17.37;8.13;;;;;;;;;;5030183;28;20476;-80
2023/05/24 14:20:55;;;;;;;21.10;8.07;;;;;;;;;;5030630;28;20447;-81
2023/05/24 14:23:21;;;;;;;27.73;8.83;;;;;;;;;;5036842;28;20474;-82
2023/05/24 14:25:49;;;;;;;23.73;8.77;;;;;;;;;;5029488;28;20457;-80
2023/05/24 14:28:15;;;;;;;25.90;8.00;;;;;;;;;;5032344;28;20495;-81